• Join FlightAware (Why Join?)
  • Login
  • US Flag 
06:36PM EDT


 

Airport Tracker/Info


-or-


 

Live Flight TrackerFlight Track Log ✈ N498QS ✈ 19-Apr-2013 ✈ KPBI - KAUS

Flight Track Log - Related Links

Times and Time Zones

All times are in EDT time to prevent confusion due to time zone crossing. See the N498QS flight status page for this flight to view local times or setup timezone preferences in your user account.

Time Position Orientation Groundspeed Altitude Reporting Facility
EDT Latitude Longitude Course Direction KTS MPH feet Rate Location/Type
01:03PM 26.7297 -79.9944 336° Northwest 236 272 7,100  Level Miami Center
01:04PM 26.8086 -80.0128 348° North 295 339 9,700 1,800 Climbing Miami Center
01:05PM 26.8275 -80.1017 283° West 273 314 10,800 1,200 Climbing Miami Center
01:06PM 26.8461 -80.2069 281° West 321 369 12,100 1,200 Climbing Miami Center
01:07PM 26.8664 -80.3264 281° West 362 417 13,200 1,020 Climbing Miami Center
01:08PM 26.9845 -80.3839 336° Northwest  Level FlightAware Approximate
01:08PM 26.8761 -80.4408 275° West 371 427 14,200  Level Miami Center
01:09PM 27.0834 -80.4334 336° Northwest  Level FlightAware Approximate
01:09PM 26.8919 -80.5531 279° West 371 427 15,700  Level Miami Center
01:10PM 26.9014 -80.6744 275° West 377 434 18,800 2,700 Climbing Miami Center
01:11PM 26.9172 -80.7914 279° West 383 441 21,100 1,980 Climbing Miami Center
01:12PM 26.9306 -80.9131 277° West 391 450 22,800 1,680 Climbing Miami Center
01:13PM 26.9433 -81.0439 276° West 403 464 24,500 1,860 Climbing Miami Center
01:14PM 26.9589 -81.1539 279° West 410 472 26,600 1,740 Climbing Miami Center
01:15PM 26.9697 -81.2869 275° West 420 483 28,000 900 Climbing Miami Center
01:16PM 26.9989 -81.4164 284° West 426 490 28,400 1,080 Climbing Miami Center
01:17PM 27.0489 -81.5558 292° West 439 505 30,200 2,520 Climbing Miami Center
01:18PM 27.0928 -81.6811 292° West 439 505 33,500 3,000 Climbing Miami Center
01:19PM 27.1242 -81.8014 286° West 427 491 36,200 2,160 Climbing Miami Center
01:20PM 27.1497 -81.9075 285° West 398 458 37,900 1,620 Climbing Miami Center
01:21PM 27.1767 -82.0278 284° West 398 458 39,500 1,440 Climbing Miami Center
01:22PM 27.2075 -82.1622 284° West 398 458 40,800 1,320 Climbing Miami Center
01:23PM 27.2367 -82.2756 286° West 409 471 42,200 1,080 Climbing Miami Center
01:24PM 27.2628 -82.4075 283° West 409 471 43,000 360 Climbing Miami Center
01:25PM 27.2878 -82.5208 284° West 404 465 43,000  Level Miami Center
01:26PM 27.3183 -82.6461 285° West 419 482 43,000  Level Miami Center
01:27PM 27.3481 -82.7856 284° West 419 482 43,000  Level Miami Center
01:28PM 27.3783 -82.9133 285° West 419 482 43,000  Level Miami Center
01:29PM 27.4061 -83.0408 284° West 419 482 43,000  Level Miami Center
01:30PM 27.4361 -83.1664 285° West 419 482 43,000  Level Miami Center
01:31PM 27.4639 -83.2942 284° West 419 482 43,000  Level Miami Center
01:32PM 27.4917 -83.4219 284° West 419 482 43,000  Level Miami Center
01:33PM 27.5172 -83.5453 283° West 419 482 43,000  Level Miami Center
01:34PM 27.5467 -83.6708 285° West 419 482 43,000  Level Miami Center
01:35PM 27.5700 -83.7964 282° West 419 482 43,000  Level Miami Center
01:36PM 27.5972 -83.9219 284° West 419 482 43,000  Level Miami Center
01:37PM 27.6264 -84.0478 285° West 419 482 43,000  Level Miami Center
01:38PM 27.6556 -84.1739 285° West 419 482 43,000  Level Miami Center
01:40PM 27.7089 -84.4208 284° West 413 475 43,000  Level Jacksonville Center
01:41PM 27.7367 -84.5478 284° West 413 475 43,000  Level Jacksonville Center
01:42PM 27.7622 -84.6725 283° West 413 475 43,000  Level Jacksonville Center
01:43PM 27.7894 -84.8089 283° West 413 475 43,000  Level Jacksonville Center
01:44PM 27.8167 -84.9314 284° West 413 475 43,000  Level Jacksonville Center
01:45PM 27.8397 -85.0564 282° West 406 467 43,000  Level Jacksonville Center
01:46PM 27.8667 -85.1906 283° West 416 479 43,000  Level Jacksonville Center
01:47PM 27.8978 -85.3064 287° West 416 479 43,000  Level Jacksonville Center
01:48PM 27.9350 -85.4317 289° West 415 478 43,000  Level Jacksonville Center
01:49PM 27.9722 -85.5525 289° West 415 478 43,000  Level Jacksonville Center
01:50PM 28.0092 -85.6758 289° West 415 478 43,000  Level Jacksonville Center
01:51PM 28.0461 -85.8014 288° West 420 483 43,000  Level Jacksonville Center
01:52PM 28.0831 -85.9225 289° West 420 483 43,000  Level Jacksonville Center
01:53PM 28.1197 -86.0433 289° West 415 478 43,000  Level Jacksonville Center
01:54PM 28.1542 -86.1644 288° West 410 472 43,000  Level Jacksonville Center
01:55PM 28.1889 -86.2811 289° West 410 472 43,000  Level Jacksonville Center
01:56PM 28.2272 -86.4047 289° West 411 473 43,000  Level Jacksonville Center
01:57PM 28.2614 -86.5286 287° West 411 473 43,000  Level Jacksonville Center
01:58PM 28.2994 -86.6500 290° West 411 473 43,000  Level Jacksonville Center
01:59PM 28.3356 -86.7739 288° West 410 472 43,000  Level Jacksonville Center
02:00PM 28.3675 -86.8886 288° West 410 472 43,000  Level Jacksonville Center
02:01PM 28.4053 -87.0103 289° West 410 472 43,000  Level Jacksonville Center
02:02PM 28.4389 -87.1319 287° West 405 466 43,000  Level Jacksonville Center
02:03PM 28.4706 -87.2467 287° West 405 466 43,000  Level Jacksonville Center
02:04PM 28.5061 -87.3664 289° West 400 460 43,000  Level Jacksonville Center
02:05PM 28.5436 -87.4883 289° West 406 467 43,000  Level Jacksonville Center
02:06PM 28.5686 -87.5983 285° West 391 450 43,000  Level Jacksonville Center
02:07PM 28.5944 -87.6722 292° West 396 456 43,000  Level Houston Center
02:08PM 28.6289 -87.7903 288° West 396 456 43,000  Level Houston Center
02:09PM 28.6619 -87.9089 288° West 395 455 43,000  Level Houston Center
02:10PM 28.6958 -88.0297 288° West 400 460 43,000  Level Houston Center
02:11PM 28.7264 -88.1478 286° West 397 457 43,000  Level Houston Center
02:12PM 28.7542 -88.2919 282° West 390 449 43,000  Level Houston Center
02:13PM 28.7781 -88.4125 283° West 392 451 43,000  Level Houston Center
02:14PM 28.8014 -88.5339 282° West 392 451 43,000  Level Houston Center
02:15PM 28.8253 -88.6531 283° West 390 449 43,000  Level Houston Center
02:16PM 28.8478 -88.7736 282° West 388 447 43,000  Level Houston Center
02:17PM 28.8719 -88.8908 283° West 384 442 43,000  Level Houston Center
02:18PM 28.8992 -89.0361 282° West 388 447 43,000  Level Houston Center
02:19PM 28.9219 -89.1550 282° West 386 444 43,000  Level Houston Center
02:21PM 28.9453 -89.2753 283° West 387 445 43,000  Level Houston Center
02:22PM 28.9681 -89.3972 282° West 390 449 43,000  Level Houston Center
02:23PM 28.9911 -89.5169 282° West 389 448 43,000  Level Houston Center
02:24PM 29.0136 -89.6361 282° West 385 443 43,000  Level Houston Center
02:25PM 29.0411 -89.7797 282° West 384 442 43,000  Level Houston Center
02:26PM 29.0622 -89.8997 281° West 385 443 43,000  Level Houston Center
02:27PM 29.0853 -90.0186 283° West 383 441 43,000  Level Houston Center
02:28PM 29.1067 -90.1389 282° West 384 442 43,000  Level Houston Center
02:29PM 29.1300 -90.2611 282° West 390 449 43,000  Level Houston Center
02:30PM 29.1497 -90.3789 281° West 382 440 43,000  Level Houston Center
02:31PM 29.1761 -90.5222 282° West 384 442 43,000  Level Houston Center
02:32PM 29.1975 -90.6406 282° West 382 440 43,000  Level Houston Center
02:33PM 29.2178 -90.7586 281° West 379 436 43,000  Level Houston Center
02:34PM 29.2319 -90.8775 278° West 377 434 43,000  Level Houston Center
02:35PM 29.2467 -90.9964 278° West 378 435 43,000  Level Houston Center
02:36PM 29.2606 -91.1153 278° West 377 434 43,000  Level Houston Center
02:37PM 29.2783 -91.2583 278° West 377 434 43,000  Level Houston Center
02:38PM 29.2931 -91.3758 278° West 375 432 43,000  Level Houston Center
02:39PM 29.3067 -91.4944 278° West 376 433 43,000  Level Houston Center
02:40PM 29.3208 -91.6142 278° West 377 434 43,000  Level Houston Center
02:41PM 29.3350 -91.7347 278° West 380 437 43,000  Level Houston Center
02:42PM 29.3494 -91.8550 278° West 381 438 43,000  Level Houston Center
02:43PM 29.3653 -91.9983 277° West 380 437 43,000  Level Houston Center
02:44PM 29.3775 -92.1031 278° West 375 432 43,000  Level Houston Center
02:45PM 29.3775 -92.2442 270° West 372 428 43,000  Level Houston Center
02:46PM 29.3683 -92.3600 265° West 367 422 43,000  Level Houston Center
02:47PM 29.3589 -92.4767 265° West 366 421 43,000  Level Houston Center
02:48PM 29.3489 -92.5925 264° West 366 421 43,000  Level Houston Center
02:49PM 29.3386 -92.7222 265° West 362 417 43,000  Level Houston Center
02:51PM 29.3286 -92.8389 264° West 365 420 43,000  Level Houston Center
02:52PM 29.3397 -92.9531 276° West 369 425 43,000  Level Houston Center
02:53PM 29.3642 -93.0683 284° West 375 432 43,000  Level Houston Center
02:54PM 29.3897 -93.1822 284° West 371 427 43,000 -480 Level Houston Center
02:55PM 29.4128 -93.2978 283° West 371 427 42,100 -1,260 Descending Houston Center
02:56PM 29.4294 -93.4397 278° West 375 432 40,400 -1,620 Descending Houston Center
02:57PM 29.4392 -93.5558 276° West 370 426 38,800 -1,440 Descending Houston Center
02:58PM 29.4456 -93.6661 274° West 355 409 37,400 -1,380 Descending Houston Center
02:59PM 29.4597 -93.7714 279° West 339 390 36,000 -720 Descending Houston Center
03:00PM 29.4744 -93.8794 279° West 341 392 36,000  Level Houston Center
03:01PM 29.4906 -93.9892 280° West 348 400 36,000  Level Houston Center
03:02PM 29.5094 -94.1214 279° West 349 402 36,000  Level Houston Center
03:03PM 29.5247 -94.2322 279° West 351 404 36,000  Level Houston Center
03:04PM 29.5394 -94.3417 279° West 349 402 36,000  Level Houston Center
03:05PM 29.5556 -94.4500 280° West 347 399 36,000  Level Houston Center
03:06PM 29.5694 -94.5603 278° West 348 400 36,000 -180 Level Houston Center
03:07PM 29.5875 -94.6914 279° West 347 399 35,700 -1,020 Descending Houston Center
03:08PM 29.6025 -94.8017 279° West 350 403 34,000 -1,740 Descending Houston Center
03:09PM 29.6172 -94.9122 279° West 350 403 32,200 -1,020 Descending Houston Center
03:10PM 29.6325 -95.0256 279° West 357 411 32,000 -120 Descending Houston Center
03:11PM 29.6467 -95.1419 278° West 363 418 32,000  Level Houston Center
03:12PM 29.6611 -95.2553 278° West 362 417 32,000  Level Houston Center
03:13PM 29.6789 -95.3844 279° West 366 421 32,000 -240 Level Houston Center
03:14PM 29.6931 -95.4956 278° West 358 412 31,600 -900 Descending Houston Center
03:15PM 29.7078 -95.6106 278° West 360 414 30,200 -1,620 Descending Houston Center
03:16PM 29.7411 -95.7511 285° West 378 435 28,300 -1,860 Descending Houston Center
03:17PM 29.7736 -95.8667 288° West 381 438 26,400 -1,920 Descending Houston Center
03:19PM 29.8067 -95.9844 288° West 385 443 24,300 -1,920 Descending Houston Center
03:20PM 29.8408 -96.1075 288° West 377 434 22,500 -1,740 Descending Houston Center
03:21PM 29.8731 -96.2222 288° West 377 434 20,800 -1,620 Descending Houston Center
03:22PM 29.9033 -96.3314 288° West 363 418 19,200 -1,500 Descending Houston Center
03:23PM 29.9325 -96.4400 287° West 359 413 17,700 -1,500 Descending Houston Center
03:24PM 29.9669 -96.5667 287° West 348 400 16,200 -1,500 Descending Houston Center
03:25PM 29.9953 -96.6703 288° West 343 395 14,700 -1,440 Descending Houston Center
03:26PM 30.0225 -96.7728 287° West 338 389 13,200 -1,380 Descending Houston Center
03:27PM 30.0497 -96.8728 287° West 331 381 11,900 -1,020 Descending Houston Center
03:28PM 30.0761 -96.9619 289° West 293 337 11,200 -600 Descending Houston Center
03:29PM 30.1042 -97.0539 289° West 263 303 10,700 -780 Descending Houston Center
03:30PM 30.1283 -97.1350 289° West 264 304 9,600 -1,020 Descending Houston Center
03:31PM 30.1522 -97.2156 289° West 263 303 8,600 -780 Descending Houston Center
03:32PM 30.1383 -97.2956 259° West 253 291 8,000 -300 Descending Houston Center
03:33PM 30.1250 -97.3792 260° West 257 296 8,000 -600 Level Houston Center
03:34PM 30.1114 -97.4536 258° West 244 281 6,800 -1,320 Descending Houston Center
03:35PM 30.0950 -97.5219 255° West 198 228 5,300 -1,500 Descending Houston Center
03:36PM 30.0850 -97.5794 259° West 186 214 3,800 -1,380 Descending Houston Center
03:37PM 30.0892 -97.6328 275° West 169 194 2,500 -1,020 Descending Houston Center
03:38PM 30.1217 -97.6547 330° Northwest 155 178 1,700 -540 Descending Houston Center
03:39PM 30.1631 -97.6572 357° North 146 168 1,500 -240 Descending Houston Center